createdAt,value
2023-03-23T00:00:14.218Z,24.18
2023-03-23T00:04:14.406Z,24.24
2023-03-23T00:08:14.282Z,24.22
2023-03-23T00:12:14.563Z,24.19
2023-03-23T00:16:14.690Z,24.23
2023-03-23T00:20:14.722Z,24.21
2023-03-23T00:24:14.732Z,24.23
2023-03-23T00:28:15.023Z,24.23
2023-03-23T00:32:15.205Z,24.24
2023-03-23T00:36:15.359Z,24.27
2023-03-23T00:40:15.503Z,24.34
2023-03-23T00:44:15.749Z,24.33
2023-03-23T00:48:16.647Z,24.34
2023-03-23T00:52:15.470Z,24.30
2023-03-23T00:56:15.559Z,24.34
2023-03-23T01:00:15.391Z,24.33
2023-03-23T01:04:15.582Z,24.33
2023-03-23T01:08:15.350Z,24.31
2023-03-23T01:12:15.587Z,24.34
2023-03-23T01:16:15.226Z,24.35
2023-03-23T01:20:15.770Z,24.36
2023-03-23T01:24:15.154Z,24.33
2023-03-23T01:28:15.174Z,24.45
2023-03-23T01:32:15.095Z,24.38
2023-03-23T01:36:15.240Z,24.39
2023-03-23T01:40:15.357Z,24.36
2023-03-23T01:44:15.722Z,24.45
2023-03-23T01:48:15.670Z,24.40
2023-03-23T01:52:16.093Z,24.42
2023-03-23T01:56:16.444Z,24.44
2023-03-23T02:00:16.267Z,24.50
2023-03-23T02:04:16.487Z,24.51
2023-03-23T02:08:16.585Z,24.46
2023-03-23T02:12:17.251Z,24.51
2023-03-23T02:16:16.957Z,24.47
2023-03-23T02:20:17.197Z,24.50
2023-03-23T02:24:18.678Z,24.51
2023-03-23T02:28:17.838Z,24.48
2023-03-23T02:32:17.800Z,24.51
2023-03-23T02:36:18.291Z,24.59
2023-03-23T02:40:19.990Z,24.55
2023-03-23T02:44:18.401Z,24.52
2023-03-23T02:48:19.045Z,24.52
2023-03-23T02:52:19.010Z,24.58
2023-03-23T02:56:19.241Z,24.53
2023-03-23T03:00:18.989Z,24.55
2023-03-23T03:04:19.423Z,24.60
2023-03-23T03:08:19.356Z,24.59
2023-03-23T03:12:18.976Z,24.59
2023-03-23T03:16:19.655Z,24.62
2023-03-23T03:20:18.844Z,24.59
2023-03-23T03:24:18.853Z,24.63
2023-03-23T03:28:18.738Z,24.57
2023-03-23T03:32:19.085Z,24.59
2023-03-23T03:36:19.072Z,24.67
2023-03-23T03:40:18.823Z,24.66
2023-03-23T03:44:19.013Z,24.66
2023-03-23T03:48:19.191Z,24.64
2023-03-23T03:52:18.593Z,24.63
2023-03-23T03:56:18.867Z,24.68
2023-03-23T04:00:18.966Z,24.68
2023-03-23T04:04:19.802Z,24.64
2023-03-23T04:08:18.893Z,24.70
2023-03-23T04:12:18.729Z,24.64
2023-03-23T04:16:18.459Z,24.65
2023-03-23T04:20:18.402Z,24.72
2023-03-23T04:24:23.323Z,24.72
2023-03-23T04:28:19.806Z,24.72
2023-03-23T04:32:18.393Z,24.72
2023-03-23T04:36:18.379Z,24.75
2023-03-23T04:40:18.211Z,24.75
2023-03-23T04:44:18.249Z,24.75
2023-03-23T04:48:18.849Z,24.75
2023-03-23T04:52:18.778Z,24.73
2023-03-23T04:56:18.368Z,24.74
2023-03-23T05:00:18.349Z,24.76
2023-03-23T05:04:18.406Z,24.78
2023-03-23T05:08:18.267Z,24.86
2023-03-23T05:12:18.330Z,24.97
2023-03-23T05:16:18.225Z,25.00
2023-03-23T05:20:18.163Z,25.00
2023-03-23T05:24:18.143Z,25.07
2023-03-23T05:28:18.063Z,25.11
2023-03-23T05:32:18.638Z,24.87
2023-03-23T05:36:20.094Z,24.54
2023-03-23T05:40:18.493Z,24.43
2023-03-23T05:44:18.253Z,24.22
2023-03-23T05:48:18.052Z,24.09
2023-03-23T05:52:18.427Z,24.05
2023-03-23T05:56:18.153Z,24.09
2023-03-23T06:00:18.032Z,24.02
2023-03-23T06:04:17.910Z,24.04
2023-03-23T06:08:18.204Z,24.03
2023-03-23T06:12:19.556Z,23.96
2023-03-23T06:16:17.911Z,24.02
2023-03-23T06:20:17.984Z,23.90
2023-03-23T06:24:17.829Z,23.91
2023-03-23T06:28:18.086Z,23.98
2023-03-23T06:32:18.281Z,24.06
2023-03-23T06:36:17.822Z,23.93
2023-03-23T06:40:17.945Z,25.29
2023-03-23T06:44:17.692Z,26.42
2023-03-23T06:48:18.642Z,26.78
2023-03-23T06:52:17.688Z,27.03
2023-03-23T06:56:17.618Z,27.32
2023-03-23T07:00:17.522Z,27.18
2023-03-23T07:04:18.163Z,27.57
2023-03-23T07:08:17.475Z,27.72
2023-03-23T07:12:23.271Z,27.38
2023-03-23T07:16:19.140Z,27.32
2023-03-23T07:20:17.373Z,27.55
2023-03-23T07:24:17.357Z,27.53
2023-03-23T07:28:17.267Z,27.42
2023-03-23T07:32:17.947Z,26.95
2023-03-23T07:36:18.125Z,27.29
2023-03-23T07:40:17.526Z,27.10
2023-03-23T07:44:17.282Z,26.92
2023-03-23T07:48:21.251Z,27.01
2023-03-23T07:52:17.220Z,26.93
2023-03-23T07:56:17.183Z,26.98
2023-03-23T08:00:17.121Z,26.89
2023-03-23T08:04:17.095Z,26.74
2023-03-23T08:08:17.083Z,26.61
2023-03-23T08:12:17.047Z,26.58
2023-03-23T08:16:17.174Z,26.51
2023-03-23T08:20:17.343Z,26.36
2023-03-23T08:24:17.743Z,26.28
2023-03-23T08:28:18.264Z,26.21
2023-03-23T08:32:17.937Z,25.35
2023-03-23T08:36:18.218Z,26.19
2023-03-23T08:40:18.755Z,26.11
2023-03-23T08:44:18.234Z,26.47
2023-03-23T08:48:18.253Z,26.32
2023-03-23T08:52:18.551Z,26.36
2023-03-23T08:56:18.368Z,26.35
2023-03-23T09:00:18.558Z,26.27
2023-03-23T09:04:18.683Z,26.48
2023-03-23T09:08:18.910Z,26.42
2023-03-23T09:12:19.627Z,26.47
2023-03-23T09:16:18.857Z,26.37
2023-03-23T09:20:18.787Z,26.23
2023-03-23T09:24:19.582Z,26.41
2023-03-23T09:28:18.808Z,26.35
2023-03-23T09:32:18.683Z,25.86
2023-03-23T09:36:18.657Z,25.68
2023-03-23T09:40:18.619Z,25.66
2023-03-23T09:44:18.848Z,25.50
2023-03-23T09:48:19.211Z,26.18
2023-03-23T09:52:18.749Z,26.55
2023-03-23T09:56:19.615Z,26.64
2023-03-23T10:00:18.990Z,26.95
2023-03-23T10:04:19.081Z,26.90
2023-03-23T10:08:19.125Z,27.05
2023-03-23T10:12:19.183Z,26.99
2023-03-23T10:16:19.240Z,27.03
2023-03-23T10:20:19.668Z,27.12
2023-03-23T10:24:19.541Z,27.15
2023-03-23T10:28:19.547Z,27.18
2023-03-23T10:32:19.523Z,27.34
2023-03-23T10:36:19.597Z,27.00
2023-03-23T10:40:22.187Z,26.18
2023-03-23T10:44:19.633Z,25.70
2023-03-23T10:48:19.606Z,25.48
2023-03-23T10:52:19.828Z,25.02
2023-03-23T10:56:19.857Z,24.93
2023-03-23T11:00:19.865Z,24.55
2023-03-23T11:04:19.492Z,24.40
2023-03-23T11:08:19.365Z,24.33
2023-03-23T11:12:19.977Z,24.39
2023-03-23T11:16:19.783Z,24.56
2023-03-23T11:20:19.534Z,24.53
2023-03-23T11:24:19.304Z,24.60
2023-03-23T11:28:19.306Z,24.10
2023-03-23T11:32:19.173Z,23.54
2023-03-23T11:36:19.377Z,23.55
2023-03-23T11:40:19.088Z,24.09
2023-03-23T11:44:19.051Z,23.99
2023-03-23T11:48:19.157Z,24.31
2023-03-23T11:52:19.167Z,24.40
2023-03-23T11:56:19.340Z,24.06
2023-03-23T12:00:19.380Z,23.79
2023-03-23T12:04:20.004Z,23.69
2023-03-23T12:12:19.720Z,23.72
2023-03-23T12:16:19.737Z,23.54
2023-03-23T12:20:19.808Z,23.46
2023-03-23T12:24:19.837Z,23.57
2023-03-23T12:28:19.955Z,23.73
2023-03-23T12:32:20.168Z,23.71
2023-03-23T12:36:20.406Z,23.84
2023-03-23T12:40:20.358Z,23.74
2023-03-23T12:44:20.336Z,23.62
2023-03-23T12:48:20.663Z,23.43
2023-03-23T12:52:20.253Z,23.27
2023-03-23T12:56:20.222Z,23.21
2023-03-23T13:00:20.185Z,23.08
2023-03-23T13:04:21.033Z,23.16
2023-03-23T13:08:24.503Z,22.91
2023-03-23T13:12:20.115Z,22.72
2023-03-23T13:16:20.062Z,22.55
2023-03-23T13:20:20.280Z,22.29
2023-03-23T13:24:20.156Z,22.22
2023-03-23T13:28:19.921Z,22.19
2023-03-23T13:32:20.218Z,22.09
2023-03-23T13:36:19.979Z,22.16
2023-03-23T13:40:20.109Z,22.19
2023-03-23T13:44:19.971Z,22.23
2023-03-23T13:48:20.636Z,22.25
2023-03-23T13:52:19.726Z,22.27
2023-03-23T13:56:19.773Z,22.18
2023-03-23T14:00:19.777Z,22.20
2023-03-23T14:04:20.011Z,22.31
2023-03-23T14:08:20.113Z,22.36
2023-03-23T14:12:20.021Z,22.39
2023-03-23T14:16:20.400Z,22.49
2023-03-23T14:20:20.397Z,22.64
2023-03-23T14:24:20.473Z,22.72
2023-03-23T14:28:20.023Z,22.73
2023-03-23T14:32:20.364Z,22.82
2023-03-23T14:36:20.188Z,22.83
2023-03-23T14:40:20.151Z,22.92
2023-03-23T14:44:20.216Z,22.93
2023-03-23T14:48:20.466Z,22.91
2023-03-23T14:52:20.522Z,22.97
2023-03-23T14:56:20.451Z,23.02
2023-03-23T15:00:20.777Z,22.90
2023-03-23T15:04:20.955Z,22.98
2023-03-23T15:08:20.752Z,22.97
2023-03-23T15:12:21.327Z,23.04
2023-03-23T15:16:21.196Z,23.13
2023-03-23T15:20:21.282Z,23.22
2023-03-23T15:24:21.274Z,23.31
2023-03-23T15:28:21.432Z,23.34
2023-03-23T15:32:21.298Z,23.27
2023-03-23T15:36:21.253Z,23.20
2023-03-23T15:40:21.419Z,23.17
2023-03-23T15:44:21.363Z,23.12
2023-03-23T15:48:21.126Z,23.16
2023-03-23T15:52:21.494Z,23.29
2023-03-23T15:56:21.384Z,23.36
2023-03-23T16:00:21.178Z,23.43
2023-03-23T16:04:21.161Z,23.49
2023-03-23T16:08:21.028Z,23.61
2023-03-23T16:12:21.892Z,23.68
2023-03-23T16:16:21.383Z,23.67
2023-03-23T16:20:20.925Z,23.73
2023-03-23T16:24:20.979Z,23.80
2023-03-23T16:36:44.890Z,23.90
2023-03-23T16:40:45.130Z,23.90
2023-03-23T16:44:44.873Z,23.93
2023-03-23T16:48:44.837Z,24.01
2023-03-23T16:52:46.404Z,24.11
2023-03-23T16:56:44.771Z,24.09
2023-03-23T17:00:44.712Z,24.10
2023-03-23T17:04:45.115Z,24.14
2023-03-23T17:08:44.756Z,24.10
2023-03-23T17:12:44.691Z,24.21
2023-03-23T17:16:45.013Z,24.22
2023-03-23T17:20:44.892Z,24.23
2023-03-23T17:24:45.002Z,24.20
2023-03-23T17:28:45.119Z,24.30
2023-03-23T17:32:45.641Z,24.29
2023-03-23T17:36:45.485Z,24.37
2023-03-23T17:40:45.722Z,24.39
2023-03-23T17:44:46.027Z,24.40
2023-03-23T17:48:45.936Z,24.40
2023-03-23T17:52:46.150Z,24.43
2023-03-23T17:56:46.357Z,24.45
2023-03-23T18:00:46.607Z,24.49
2023-03-23T18:04:46.654Z,24.43
2023-03-23T18:08:47.122Z,24.46
2023-03-23T18:12:46.858Z,24.49
2023-03-23T18:16:46.851Z,24.50
2023-03-23T18:20:47.165Z,24.54
2023-03-23T18:24:47.082Z,24.79
2023-03-23T18:28:46.763Z,26.32
2023-03-23T18:32:46.701Z,25.77
2023-03-23T18:36:46.779Z,25.81
2023-03-23T18:40:46.681Z,25.85
2023-03-23T18:44:46.616Z,25.95
2023-03-23T18:48:46.528Z,26.01
2023-03-23T18:52:46.918Z,25.85
2023-03-23T18:56:46.638Z,26.02
2023-03-23T19:00:46.436Z,25.83
2023-03-23T19:04:46.576Z,25.56
2023-03-23T19:08:46.484Z,25.26
2023-03-23T19:12:47.308Z,25.04
2023-03-23T19:16:46.319Z,24.95
2023-03-23T19:21:12.587Z,24.87
2023-03-23T19:24:47.538Z,24.80
2023-03-23T19:29:23.309Z,24.76
2023-03-23T19:32:47.214Z,24.73
2023-03-23T19:36:54.378Z,24.77
2023-03-23T19:40:48.225Z,24.78
2023-03-23T19:44:46.763Z,24.78
2023-03-23T19:48:46.650Z,24.77
2023-03-23T19:52:46.093Z,24.75
2023-03-23T19:56:45.984Z,24.84
2023-03-23T20:00:46.071Z,24.78
2023-03-23T20:04:46.501Z,24.82
2023-03-23T20:08:46.426Z,24.82
2023-03-23T20:12:46.550Z,24.79
2023-03-23T20:16:46.377Z,24.85
2023-03-23T20:20:50.153Z,24.82
2023-03-23T20:24:47.380Z,24.79
2023-03-23T20:28:47.649Z,24.82
2023-03-23T20:32:46.347Z,24.76
2023-03-23T20:36:46.189Z,24.82
2023-03-23T20:40:46.176Z,24.73
2023-03-23T20:44:49.377Z,24.82
2023-03-23T20:48:46.190Z,24.81
2023-03-23T20:52:46.093Z,24.87
2023-03-23T20:56:46.119Z,24.82
2023-03-23T21:00:46.030Z,24.83
2023-03-23T21:04:46.359Z,24.87
2023-03-23T21:08:45.953Z,24.86
2023-03-23T21:12:46.308Z,24.84
2023-03-23T21:16:45.969Z,24.86
2023-03-23T21:20:46.103Z,24.88
2023-03-23T21:24:45.786Z,24.93
2023-03-23T21:28:45.764Z,24.91
2023-03-23T21:32:45.749Z,24.88
2023-03-23T21:36:45.665Z,24.91
2023-03-23T21:40:46.895Z,24.91
2023-03-23T21:44:45.734Z,24.91
2023-03-23T21:48:45.527Z,24.91
2023-03-23T21:52:45.792Z,24.91
2023-03-23T21:56:46.130Z,24.92
2023-03-23T22:00:46.238Z,24.98
2023-03-23T22:04:45.523Z,24.95
2023-03-23T22:08:45.560Z,24.93
2023-03-23T22:12:46.280Z,25.00
2023-03-23T22:16:46.829Z,24.98
2023-03-23T22:20:46.087Z,24.89
2023-03-23T22:24:46.056Z,24.96
2023-03-23T22:28:46.033Z,24.93
2023-03-23T22:32:46.161Z,24.97
2023-03-23T22:36:46.685Z,24.96
2023-03-23T22:40:46.878Z,24.96
2023-03-23T22:44:46.868Z,24.95
2023-03-23T22:48:47.055Z,25.01
2023-03-23T22:52:47.091Z,25.01
2023-03-23T22:56:47.364Z,25.01
2023-03-23T23:00:49.495Z,25.02
2023-03-23T23:04:47.231Z,25.07
2023-03-23T23:08:47.903Z,25.05
2023-03-23T23:12:47.557Z,25.00
2023-03-23T23:16:47.691Z,25.04
2023-03-23T23:20:48.085Z,24.99
2023-03-23T23:24:48.224Z,25.07
2023-03-23T23:28:48.381Z,25.05
2023-03-23T23:32:48.411Z,25.13
2023-03-23T23:36:48.638Z,25.08
2023-03-23T23:40:48.981Z,25.09
2023-03-23T23:44:48.783Z,25.09
2023-03-23T23:48:49.238Z,25.06
2023-03-23T23:52:49.333Z,25.05
2023-03-23T23:56:49.793Z,25.14
